Time;durP1;ratioP1;P1;durP2;ratioP2;P2;SDS_P1;SDS_P2;PMS_P1;PMS_P2;Temp;Humidity;BMP_temperature;BMP_pressure;BME280_temperature;BME280_humidity;BME280_pressure;Samples;Min_cycle;Max_cycle;Signal;HPM_P1;HPM_P2
2022/11/25 00:01:11;;;;;;;;;;;;;;;12.25;58.33;100924.84;4994302;28;113486;-67
2022/11/25 00:03:39;;;;;;;;;;;;;;;12.24;58.47;100928.44;4993886;28;124378;-67
2022/11/25 00:06:09;;;;;;;;;;;;;;;12.24;58.35;100923.16;4991381;28;124568;-67
2022/11/25 00:08:36;;;;;;;;;;;;;;;12.23;58.44;100916.09;4994959;28;113906;-67
2022/11/25 00:11:03;;;;;;;;;;;;;;;12.22;58.51;100919.72;4992446;28;114585;-66
2022/11/25 00:13:31;;;;;;;;;;;;;;;12.24;58.45;100906.31;4994787;28;125493;-67
2022/11/25 00:16:01;;;;;;;;;;;;;;;12.22;58.44;100909.09;4993022;28;123740;-67
2022/11/25 00:18:28;;;;;;;;;;;;;;;12.21;58.35;100901.19;4993701;28;114332;-67
2022/11/25 00:20:55;;;;;;;;;;;;;;;12.20;58.45;100902.97;4996522;28;114011;-67
2022/11/25 00:23:22;;;;;;;;;;;;;;;12.19;58.55;100893.31;4993394;28;124071;-67
2022/11/25 00:25:49;;;;;;;;;;;;;;;12.19;58.47;100882.69;4997336;28;123688;-67
2022/11/25 00:28:17;;;;;;;;;;;;;;;12.18;58.49;100891.56;4991699;28;114717;-67
2022/11/25 00:30:44;;;;;;;;;;;;;;;12.19;58.62;100893.31;4989483;28;113385;-67
2022/11/25 00:33:11;;;;;;;;;;;;;;;12.19;58.51;100885.34;4991792;28;124585;-67
2022/11/25 00:35:38;;;;;;;;;;;;;;;12.19;58.64;100893.31;4989473;28;123889;-67
2022/11/25 00:38:04;;;;;;;;;;;;;;;12.21;58.63;100886.13;4993874;28;113258;-66
2022/11/25 00:40:31;;;;;;;;;;;;;;;12.22;58.61;100879.88;4992322;28;114226;-66
2022/11/25 00:45:44;;;;;;;;;;;;;;;12.24;58.59;100874.47;4989498;28;124416;-67
2022/11/25 00:48:12;;;;;;;;;;;;;;;12.23;58.51;100873.63;4992683;28;97196;-67
2022/11/25 00:50:38;;;;;;;;;;;;;;;12.24;58.73;100878.00;4977575;28;113369;-67
2022/11/25 00:53:05;;;;;;;;;;;;;;;12.25;58.64;100871.72;4977074;28;123533;-67
2022/11/25 00:56:11;;;;;;;;;;;;;;;12.27;58.58;100869.84;4978321;28;123368;-67
2022/11/25 00:58:19;;;;;;;;;;;;;;;12.30;58.68;100873.28;4991887;28;114169;-67
2022/11/25 01:00:46;;;;;;;;;;;;;;;12.31;58.62;100869.72;4991691;28;112780;-66
2022/11/25 01:03:13;;;;;;;;;;;;;;;12.32;58.62;100882.91;4977614;28;123963;-67
2022/11/25 01:05:40;;;;;;;;;;;;;;;12.33;58.62;100878.44;4991119;28;122633;-67
2022/11/25 01:08:06;;;;;;;;;;;;;;;12.34;58.66;100882.81;4992165;28;114934;-67
2022/11/25 01:10:33;;;;;;;;;;;;;;;12.34;58.50;100874.84;4989524;28;112730;-67
2022/11/25 01:13:01;;;;;;;;;;;;;;;12.36;58.64;100878.31;4990566;28;124240;-67
2022/11/25 01:15:28;;;;;;;;;;;;;;;12.37;58.59;100874.69;4978167;28;123700;-67
2022/11/25 01:17:55;;;;;;;;;;;;;;;12.40;58.60;100877.19;5005365;28;114590;-67
2022/11/25 01:20:22;;;;;;;;;;;;;;;12.40;58.61;100874.53;4995035;28;113782;-67
2022/11/25 01:22:50;;;;;;;;;;;;;;;12.41;58.60;100878.91;4980889;28;123382;-67
2022/11/25 01:25:17;;;;;;;;;;;;;;;12.42;58.68;100878.81;4992780;28;123838;-67
2022/11/25 01:27:44;;;;;;;;;;;;;;;12.43;58.74;100879.69;4994053;28;113399;-67
2022/11/25 01:30:11;;;;;;;;;;;;;;;12.44;58.59;100881.41;4973895;28;112505;-67
2022/11/25 01:32:38;;;;;;;;;;;;;;;12.43;58.45;100887.66;4993867;28;124316;-67
2022/11/25 01:35:06;;;;;;;;;;;;;;;12.42;58.62;100883.28;4972600;28;123246;-67
2022/11/25 01:37:32;;;;;;;;;;;;;;;12.40;58.67;100890.47;4975603;28;113512;-67
2022/11/25 01:39:59;;;;;;;;;;;;;;;12.41;58.60;100886.88;4995109;28;115697;-67
2022/11/25 01:42:28;;;;;;;;;;;;;;;12.41;58.95;100892.19;4993054;28;124194;-67
2022/11/25 01:45:13;;;;;;;;;;;;;;;12.41;58.59;100887.75;4994049;28;124303;-67
2022/11/25 01:47:40;;;;;;;;;;;;;;;12.41;58.63;100897.50;4972470;28;114167;-67
2022/11/25 01:50:09;;;;;;;;;;;;;;;12.42;58.67;100893.91;4995191;28;114041;-67
2022/11/25 01:52:42;;;;;;;;;;;;;;;12.42;58.81;100899.22;4996139;28;124340;-67
2022/11/25 01:55:12;;;;;;;;;;;;;;;12.43;58.68;100895.63;4978337;28;124006;-67
2022/11/25 01:57:42;;;;;;;;;;;;;;;12.43;58.78;100895.63;4988311;28;114613;-66
2022/11/25 02:00:09;;;;;;;;;;;;;;;12.42;58.71;100893.91;4989384;28;113875;-67
2022/11/25 02:02:50;;;;;;;;;;;;;;;12.43;58.69;100900.94;4990344;28;124130;-67
2022/11/25 02:05:40;;;;;;;;;;;;;;;12.43;58.67;100895.63;4987557;28;123238;-67
2022/11/25 02:08:08;;;;;;;;;;;;;;;12.44;58.82;100892.03;4957108;28;114831;-67
2022/11/25 02:10:35;;;;;;;;;;;;;;;12.44;58.76;100892.03;4977103;28;114364;-66
2022/11/25 02:13:02;;;;;;;;;;;;;;;12.46;58.82;100898.13;4994778;28;124844;-67
2022/11/25 02:15:32;;;;;;;;;;;;;;;12.47;58.93;100899.84;4999899;28;124177;-67
2022/11/25 02:17:59;;;;;;;;;;;;;;;12.49;58.81;100895.31;4976762;28;113943;-67
2022/11/25 02:20:26;;;;;;;;;;;;;;;12.51;58.75;100904.06;4995272;28;112538;-67
2022/11/25 02:22:53;;;;;;;;;;;;;;;12.53;58.80;100912.81;4994655;28;125099;-67
2022/11/25 02:25:24;;;;;;;;;;;;;;;12.55;58.77;100910.94;4991989;28;121800;-67
2022/11/25 02:27:55;;;;;;;;;;;;;;;12.56;58.69;100917.94;4975629;28;113924;-67
2022/11/25 02:30:22;;;;;;;;;;;;;;;12.56;58.76;100925.91;4996492;28;116144;-67
2022/11/25 02:32:49;;;;;;;;;;;;;;;12.59;58.90;100925.75;5001932;28;124243;-67
2022/11/25 02:35:22;;;;;;;;;;;;;;;12.61;59.01;100926.53;4993035;28;124187;-67
2022/11/25 02:37:49;;;;;;;;;;;;;;;12.64;58.93;100926.41;4989352;28;112839;-67
2022/11/25 02:40:16;;;;;;;;;;;;;;;12.70;58.93;100919.06;4975537;28;112702;-67
2022/11/25 02:42:44;;;;;;;;;;;;;;;12.73;59.00;100924.19;4994422;28;124192;-66
2022/11/25 02:45:16;;;;;;;;;;;;;;;12.76;58.90;100927.53;4970433;28;123078;-67
2022/11/25 02:47:42;;;;;;;;;;;;;;;12.80;58.84;100930.91;4992999;28;113392;-67
2022/11/25 02:50:12;;;;;;;;;;;;;;;12.84;58.88;100938.59;4992505;28;113823;-67
2022/11/25 02:52:39;;;;;;;;;;;;;;;12.87;58.93;100936.75;4971865;28;124326;-67
2022/11/25 02:55:06;;;;;;;;;;;;;;;12.90;59.00;100947.22;4987198;28;123385;-67
2022/11/25 02:57:32;;;;;;;;;;;;;;;12.93;59.06;100937.28;4992606;28;114205;-67
2022/11/25 02:59:59;;;;;;;;;;;;;;;12.98;58.90;100940.56;4987927;28;114608;-67
2022/11/25 03:02:26;;;;;;;;;;;;;;;13.03;58.97;100938.50;4981244;28;123440;-67
2022/11/25 03:04:53;;;;;;;;;;;;;;;13.07;59.01;100943.66;4987423;28;123336;-67
2022/11/25 03:07:20;;;;;;;;;;;;;;;13.11;58.86;100951.41;4995954;28;115185;-67
2022/11/25 03:09:47;;;;;;;;;;;;;;;13.15;59.22;100944.13;4991697;28;113896;-67
2022/11/25 03:12:17;;;;;;;;;;;;;;;13.18;59.03;100947.44;4978237;28;123711;-67
2022/11/25 03:14:44;;;;;;;;;;;;;;;13.22;58.81;100948.13;4977633;28;123460;-67
2022/11/25 03:17:11;;;;;;;;;;;;;;;13.24;58.93;100948.91;4991304;28;115256;-67
2022/11/25 03:19:38;;;;;;;;;;;;;;;13.26;58.93;100955.03;4990221;28;112996;-67
2022/11/25 03:22:05;;;;;;;;;;;;;;;13.28;58.97;100958.47;4989846;28;125009;-67
2022/11/25 03:24:32;;;;;;;;;;;;;;;13.29;58.73;100954.84;4971649;28;122711;-66
2022/11/25 03:26:59;;;;;;;;;;;;;;;13.31;58.91;100947.66;4991111;28;114559;-68
2022/11/25 03:29:26;;;;;;;;;;;;;;;13.32;58.93;100944.06;4991351;28;113969;-68
2022/11/25 03:31:53;;;;;;;;;;;;;;;13.35;58.86;100932.41;4992921;28;124027;-67
2022/11/25 03:34:20;;;;;;;;;;;;;;;13.37;58.79;100907.44;4987070;28;123601;-67
2022/11/25 03:36:47;;;;;;;;;;;;;;;13.38;58.80;100885.19;4989368;28;113478;-68
2022/11/25 03:39:15;;;;;;;;;;;;;;;13.37;58.89;100883.50;4992573;28;113536;-68
2022/11/25 03:41:41;;;;;;;;;;;;;;;13.36;58.92;100908.38;4986781;28;124683;-67
2022/11/25 03:44:08;;;;;;;;;;;;;;;13.37;58.94;100910.09;4991159;28;122734;-67
2022/11/25 03:46:35;;;;;;;;;;;;;;;13.39;58.89;100912.66;4990373;28;113505;-68
2022/11/25 03:49:05;;;;;;;;;;;;;;;13.40;58.96;100903.75;4987815;28;113891;-67
2022/11/25 03:51:32;;;;;;;;;;;;;;;13.40;58.78;100899.28;4987335;28;123475;-67
2022/11/25 03:53:59;;;;;;;;;;;;;;;13.41;58.89;100893.03;4990346;28;124003;-68
2022/11/25 03:56:27;;;;;;;;;;;;;;;13.42;58.83;100902.72;4970832;28;113982;-67
2022/11/25 03:58:55;;;;;;;;;;;;;;;13.41;58.89;100911.66;4987120;28;113062;-67
2022/11/25 04:01:22;;;;;;;;;;;;;;;13.41;58.79;100916.97;4971749;28;124173;-68
2022/11/25 04:03:49;;;;;;;;;;;;;;;13.40;58.71;100915.22;4990845;28;125524;-68
2022/11/25 04:06:18;;;;;;;;;;;;;;;13.39;58.92;100934.81;4989733;28;114782;-68
2022/11/25 04:08:47;;;;;;;;;;;;;;;13.39;58.88;100948.13;4984866;28;113596;-68
2022/11/25 04:11:14;;;;;;;;;;;;;;;13.39;58.79;100940.13;4989590;28;122558;-67
2022/11/25 04:13:44;;;;;;;;;;;;;;;13.40;58.89;100947.16;4986499;28;123191;-67
2022/11/25 04:16:18;;;;;;;;;;;;;;;13.38;58.72;100949.06;4975610;28;113556;-67
2022/11/25 04:18:45;;;;;;;;;;;;;;;13.35;58.78;100954.53;4971630;28;113449;-68
2022/11/25 04:21:12;;;;;;;;;;;;;;;13.35;58.54;100962.50;4972753;28;123536;-68
2022/11/25 04:23:39;;;;;;;;;;;;;;;13.34;58.88;100974.13;4975737;28;123273;-67
2022/11/25 04:26:10;;;;;;;;;;;;;;;13.35;58.82;100975.81;4989484;28;114019;-67
2022/11/25 04:28:39;;;;;;;;;;;;;;;13.33;58.78;100972.38;4995030;28;113020;-67
2022/11/25 04:31:07;;;;;;;;;;;;;;;13.32;58.84;100981.31;4991344;28;122621;-67
2022/11/25 04:33:37;;;;;;;;;;;;;;;13.31;58.84;100989.38;4980930;28;123479;-68
2022/11/25 04:36:04;;;;;;;;;;;;;;;13.30;58.72;100988.53;4977997;28;116475;-68
2022/11/25 04:38:30;;;;;;;;;;;;;;;13.28;58.86;100990.38;4990290;28;113566;-68
2022/11/25 04:40:58;;;;;;;;;;;;;;;13.26;58.82;100992.25;4998337;28;123909;-67
2022/11/25 04:43:25;;;;;;;;;;;;;;;13.23;58.76;101003.91;4996533;28;124126;-67
2022/11/25 04:46:02;;;;;;;;;;;;;;;13.21;58.80;100999.63;4980958;28;116271;-67
2022/11/25 04:48:49;;;;;;;;;;;;;;;13.18;58.86;101010.41;4989623;28;114083;-67
2022/11/25 04:51:16;;;;;;;;;;;;;;;13.15;58.99;101013.25;4977573;28;123458;-67
2022/11/25 04:53:45;;;;;;;;;;;;;;;13.13;58.83;101012.44;4994216;28;123601;-68
2022/11/25 04:56:17;;;;;;;;;;;;;;;13.11;58.79;101019.66;4978368;28;113523;-67
2022/11/25 04:59:46;;;;;;;;;;;;;;;13.09;58.88;101024.19;4980802;28;112886;-68
2022/11/25 05:01:46;;;;;;;;;;;;;;;13.05;58.96;101032.34;4977419;28;123850;-68
2022/11/25 05:04:28;;;;;;;;;;;;;;;13.04;58.94;101041.25;4993569;28;123734;-68
2022/11/25 05:06:55;;;;;;;;;;;;;;;13.01;58.98;101036.09;4993665;28;114062;-68
2022/11/25 05:09:23;;;;;;;;;;;;;;;12.99;58.86;101037.97;4996913;28;112846;-67
2022/11/25 05:12:02;;;;;;;;;;;;;;;12.97;58.95;101050.47;5005920;28;123435;-68
2022/11/25 05:14:29;;;;;;;;;;;;;;;12.95;58.97;101041.72;4973121;28;124034;-68
2022/11/25 05:16:56;;;;;;;;;;;;;;;12.94;59.07;101042.69;4977249;28;113298;-67
2022/11/25 05:19:23;;;;;;;;;;;;;;;12.93;58.99;101038.28;4977438;28;112978;-67
2022/11/25 05:21:50;;;;;;;;;;;;;;;12.93;59.05;101040.09;4973718;28;123804;-67
2022/11/25 05:24:17;;;;;;;;;;;;;;;12.92;59.02;101031.28;4988555;28;123214;-68
2022/11/25 05:26:45;;;;;;;;;;;;;;;12.91;59.13;101034.84;4975010;28;113766;-68
2022/11/25 05:29:12;;;;;;;;;;;;;;;12.89;59.04;101038.53;4975363;28;113877;-67
2022/11/25 05:31:39;;;;;;;;;;;;;;;12.86;58.87;101042.19;4972521;28;123322;-67
2022/11/25 05:34:06;;;;;;;;;;;;;;;12.84;59.10;101049.41;4992448;28;123755;-67
2022/11/25 05:36:33;;;;;;;;;;;;;;;12.82;59.09;101040.66;4975448;28;113638;-67
2022/11/25 05:39:00;;;;;;;;;;;;;;;12.80;59.04;101042.53;4992122;28;113441;-67
2022/11/25 05:41:53;;;;;;;;;;;;;;;12.79;59.22;101046.09;4997532;28;124326;-68
2022/11/25 05:44:20;;;;;;;;;;;;;;;12.78;59.10;101049.72;4989121;28;123634;-67
2022/11/25 05:46:51;;;;;;;;;;;;;;;12.75;59.16;101049.88;4975258;28;113543;-67
2022/11/25 05:49:18;;;;;;;;;;;;;;;12.72;59.08;101044.72;4994211;28;113444;-68
2022/11/25 05:51:47;;;;;;;;;;;;;;;12.69;59.11;101055.50;4988313;28;124054;-67
2022/11/25 05:54:14;;;;;;;;;;;;;;;12.65;59.04;101050.31;4972171;28;123133;-67
2022/11/25 05:56:41;;;;;;;;;;;;;;;12.61;59.01;101054.09;4988307;28;113505;-67
2022/11/25 05:59:28;;;;;;;;;;;;;;;12.58;59.04;101048.94;4988348;28;113676;-68
2022/11/25 06:02:21;;;;;;;;;;;;;;;12.54;59.07;101055.31;4984212;28;124741;-68
2022/11/25 06:04:50;;;;;;;;;;;;;;;12.50;59.05;101051.09;4975754;28;123886;-68
2022/11/25 06:07:17;;;;;;;;;;;;;;;12.49;59.24;101053.84;4997907;28;113942;-68
2022/11/25 06:09:44;;;;;;;;;;;;;;;12.46;59.15;101049.53;4991749;28;112990;-68
2022/11/25 06:12:11;;;;;;;;;;;;;;;12.44;59.08;101062.03;4992614;28;124260;-67
2022/11/25 06:14:45;;;;;;;;;;;;;;;12.42;59.09;101063.91;4995355;28;124526;-67
2022/11/25 06:17:12;;;;;;;;;;;;;;;12.39;59.01;101069.38;4993240;28;115566;-67
2022/11/25 06:20:03;;;;;;;;;;;;;;;12.34;59.08;101076.69;4992511;28;114092;-67
2022/11/25 06:22:30;;;;;;;;;;;;;;;12.32;59.20;101083.88;4973155;28;124315;-67
2022/11/25 06:24:56;;;;;;;;;;;;;;;12.29;59.14;101084.03;4977457;28;124882;-66
2022/11/25 06:27:31;;;;;;;;;;;;;;;12.26;59.26;101085.91;4976743;28;113640;-66
2022/11/25 06:30:18;;;;;;;;;;;;;;;12.24;59.22;101093.09;4993378;28;113980;-67
2022/11/25 06:32:56;;;;;;;;;;;;;;;12.21;59.32;101082.63;4974611;28;123752;-67
2022/11/25 06:35:23;;;;;;;;;;;;;;;12.20;59.21;101091.50;4989292;28;123173;-67
2022/11/25 06:37:54;;;;;;;;;;;;;;;12.19;59.26;101096.91;4988457;28;114116;-67
2022/11/25 06:40:21;;;;;;;;;;;;;;;12.17;59.24;101102.28;4992619;28;113395;-67
2022/11/25 06:42:47;;;;;;;;;;;;;;;12.15;59.32;101098.84;4991202;28;125239;-67
2022/11/25 06:45:14;;;;;;;;;;;;;;;12.15;59.24;101104.16;4992077;28;124128;-67
2022/11/25 06:47:41;;;;;;;;;;;;;;;12.12;59.45;101104.28;4990719;28;114433;-67
2022/11/25 06:50:09;;;;;;;;;;;;;;;12.12;59.40;101111.41;4991028;28;113340;-67
2022/11/25 06:52:36;;;;;;;;;;;;;;;12.10;59.36;101111.47;4990964;28;124042;-67
2022/11/25 06:55:03;;;;;;;;;;;;;;;12.10;59.36;101124.75;4988919;28;123137;-67
2022/11/25 06:57:30;;;;;;;;;;;;;;;12.08;59.19;101126.63;4989666;28;114386;-67
2022/11/25 06:59:56;;;;;;;;;;;;;;;12.06;59.35;101131.13;4993383;28;113910;-67
2022/11/25 07:02:23;;;;;;;;;;;;;;;12.03;59.35;101133.91;4990485;28;124713;-66
2022/11/25 07:04:50;;;;;;;;;;;;;;;12.03;59.30;101141.88;4989405;28;124790;-67
2022/11/25 07:07:17;;;;;;;;;;;;;;;12.00;59.20;101136.75;4992320;28;115091;-67
2022/11/25 07:09:44;;;;;;;;;;;;;;;11.99;59.43;101145.63;4989539;28;114842;-67
2022/11/25 07:12:11;;;;;;;;;;;;;;;11.99;59.40;101145.63;4988005;28;124154;-67
2022/11/25 07:14:38;;;;;;;;;;;;;;;11.97;59.48;101144.84;4990393;28;124227;-67
2022/11/25 07:17:04;;;;;;;;;;;;;;;11.95;59.30;101147.56;4971528;28;114517;-67
2022/11/25 07:19:37;;;;;;;;;;;;;;;11.94;59.39;101147.63;4994927;28;111935;-67
2022/11/25 07:22:04;;;;;;;;;;;;;;;11.93;59.47;101156.53;5001912;28;124116;-66
2022/11/25 07:24:32;;;;;;;;;;;;;;;11.93;59.53;101156.53;4979143;28;123332;-67
2022/11/25 07:26:59;;;;;;;;;;;;;;;11.92;59.33;101162.75;4995817;28;115092;-67
2022/11/25 07:29:26;;;;;;;;;;;;;;;11.91;59.45;101174.31;4989805;28;113968;-66
2022/11/25 07:32:13;;;;;;;;;;;;;;;11.88;59.42;101170.84;4987221;28;124884;-66
2022/11/25 07:34:40;;;;;;;;;;;;;;;11.88;59.53;101181.47;4990912;28;124253;-67
2022/11/25 07:37:07;;;;;;;;;;;;;;;11.87;59.58;101179.72;4993838;28;113900;-67
2022/11/25 07:39:34;;;;;;;;;;;;;;;11.86;59.52;101183.28;4989178;28;113351;-67
2022/11/25 07:42:01;;;;;;;;;;;;;;;11.85;59.35;101186.91;4990803;28;124165;-67
2022/11/25 07:44:28;;;;;;;;;;;;;;;11.85;59.55;101192.19;4991872;28;124225;-67
2022/11/25 07:47:08;;;;;;;;;;;;;;;11.84;59.53;101195.78;4987304;28;113538;-66
2022/11/25 07:49:35;;;;;;;;;;;;;;;11.86;59.42;101204.53;4988624;28;114374;-66
2022/11/25 07:52:03;;;;;;;;;;;;;;;11.85;59.47;101208.13;4994170;28;124216;-67
2022/11/25 07:54:31;;;;;;;;;;;;;;;11.85;59.42;101212.56;4989933;28;124131;-67
2022/11/25 07:56:58;;;;;;;;;;;;;;;11.84;59.49;101213.50;4991573;28;116538;-67
2022/11/25 07:59:24;;;;;;;;;;;;;;;11.84;59.38;101217.00;4996237;28;114889;-67
2022/11/25 08:01:52;;;;;;;;;;;;;;;11.82;59.45;101229.47;4994675;28;123167;-66
2022/11/25 08:04:20;;;;;;;;;;;;;;;11.81;59.46;101232.19;4993226;28;123813;-66
2022/11/25 08:06:49;;;;;;;;;;;;;;;11.80;59.54;101231.34;4995154;28;114353;-67
2022/11/25 08:09:18;;;;;;;;;;;;;;;11.79;59.50;101240.25;4992698;28;113333;-67
2022/11/25 08:11:45;;;;;;;;;;;;;;;11.79;59.51;101240.25;4999571;28;124286;-67
2022/11/25 08:14:12;;;;;;;;;;;;;;;11.80;59.51;101251.72;4974491;28;125224;-67
2022/11/25 08:16:39;;;;;;;;;;;;;;;11.80;59.55;101246.41;4990300;28;114390;-67
2022/11/25 08:19:10;;;;;;;;;;;;;;;11.80;59.37;101247.25;4994664;28;113986;-67
2022/11/25 08:21:37;;;;;;;;;;;;;;;11.79;59.51;101253.53;4989551;28;124388;-67
2022/11/25 08:24:04;;;;;;;;;;;;;;;11.78;59.50;101249.13;4974924;28;124021;-67
2022/11/25 08:26:33;;;;;;;;;;;;;;;11.79;59.68;101256.19;4990920;28;114563;-67
2022/11/25 08:29:01;;;;;;;;;;;;;;;11.79;59.59;101256.19;4994375;28;114395;-67
2022/11/25 08:31:29;;;;;;;;;;;;;;;11.80;59.55;101263.19;4976353;28;122376;-67
2022/11/25 08:33:56;;;;;;;;;;;;;;;11.81;59.58;101259.63;4973458;28;123502;-67
2022/11/25 08:36:24;;;;;;;;;;;;;;;11.82;59.66;101265.78;4995305;28;114178;-67
2022/11/25 08:38:59;;;;;;;;;;;;;;;11.83;59.85;101273.69;4994067;28;113412;-67
2022/11/25 08:41:30;;;;;;;;;;;;;;;11.86;59.73;101273.53;4991600;28;125554;-66
2022/11/25 08:43:58;;;;;;;;;;;;;;;11.87;59.66;101274.41;4994490;28;124647;-68
2022/11/25 08:46:38;;;;;;;;;;;;;;;11.90;59.73;101278.75;4996842;28;115382;-67
2022/11/25 08:49:07;;;;;;;;;;;;;;;11.92;59.97;101276.88;4993298;28;115247;-67
2022/11/25 08:51:35;;;;;;;;;;;;;;;11.94;59.77;101275.91;4971116;28;124173;-67
2022/11/25 08:54:03;;;;;;;;;;;;;;;11.98;59.72;101281.91;4996727;28;124176;-67
2022/11/25 08:56:30;;;;;;;;;;;;;;;11.98;59.76;101281.91;4977013;28;114187;-68
2022/11/25 08:58:58;;;;;;;;;;;;;;;12.01;59.86;101284.44;4988293;28;113546;-67
2022/11/25 09:01:25;;;;;;;;;;;;;;;12.03;59.83;101287.91;4996396;28;125842;-68
2022/11/25 09:03:54;;;;;;;;;;;;;;;12.06;59.77;101285.97;4993146;28;123839;-68
2022/11/25 09:06:21;;;;;;;;;;;;;;;12.08;59.78;101283.25;4992788;28;114088;-68
2022/11/25 09:08:48;;;;;;;;;;;;;;;12.11;59.85;101293.75;4995770;28;113339;-68
2022/11/25 09:11:15;;;;;;;;;;;;;;;12.12;59.86;101300.78;4995250;28;125113;-68
2022/11/25 09:13:42;;;;;;;;;;;;;;;12.15;59.76;101305.97;4991600;28;124121;-68
2022/11/25 09:16:09;;;;;;;;;;;;;;;12.17;59.86;101309.41;4994057;28;115329;-68
2022/11/25 09:18:36;;;;;;;;;;;;;;;12.22;59.82;101318.03;4993819;28;114110;-68
2022/11/25 09:21:08;;;;;;;;;;;;;;;12.24;59.70;101316.19;4995570;28;125602;-68
2022/11/25 09:23:37;;;;;;;;;;;;;;;12.29;59.76;101323.06;4987877;28;124204;-68
2022/11/25 09:26:05;;;;;;;;;;;;;;;12.32;59.85;101328.22;4987942;28;115270;-68
2022/11/25 09:28:33;;;;;;;;;;;;;;;12.35;59.84;101322.78;4978965;28;112729;-69
2022/11/25 09:31:05;;;;;;;;;;;;;;;12.39;59.92;101329.69;4972737;28;125442;-68
2022/11/25 09:33:32;;;;;;;;;;;;;;;12.43;59.77;101331.25;4980908;28;123120;-68
2022/11/25 09:35:59;;;;;;;;;;;;;;;12.47;59.93;101338.19;5007781;28;115189;-69
2022/11/25 09:38:26;;;;;;;;;;;;;;;12.52;59.74;101341.47;4995730;28;114539;-67
2022/11/25 09:40:59;;;;;;;;;;;;;;;12.55;60.03;101341.34;5002756;28;123602;-68
2022/11/25 09:46:40;;;;;;;;;;;;;;;12.69;59.82;101355.81;5002060;28;114620;-68
2022/11/25 09:49:07;;;;;;;;;;;;;;;12.74;59.81;101365.28;5008955;28;113986;-68
2022/11/25 09:51:51;;;;;;;;;;;;;;;12.78;59.87;101363.34;4979744;28;123409;-68
2022/11/25 09:54:25;;;;;;;;;;;;;;;12.85;59.90;101370.13;5002482;28;123753;-68
2022/11/25 09:56:56;;;;;;;;;;;;;;;12.90;59.90;101373.41;5003151;28;114573;-68
2022/11/25 09:59:49;;;;;;;;;;;;;;;12.94;59.99;101364.38;4989852;28;113807;-67
2022/11/25 10:02:25;;;;;;;;;;;;;;;13.00;59.91;101377.38;5005811;28;123763;-68
2022/11/25 10:05:00;;;;;;;;;;;;;;;13.08;60.02;101381.50;5000050;28;123745;-68
2022/11/25 10:07:38;;;;;;;;;;;;;;;13.13;59.99;101384.78;4975385;28;114812;-68
2022/11/25 10:10:06;;;;;;;;;;;;;;;13.19;60.11;101385.34;4988629;28;114190;-68
2022/11/25 10:12:36;;;;;;;;;;;;;;;13.27;60.15;101392.97;4988065;28;124463;-68
2022/11/25 10:15:10;;;;;;;;;;;;;;;13.32;59.99;101385.66;4979968;28;122865;-68
2022/11/25 10:17:40;;;;;;;;;;;;;;;13.38;59.75;101390.69;4989683;28;115188;-67
2022/11/25 10:20:16;;;;;;;;;;;;;;;13.43;60.00;101387.81;4989940;28;114338;-68
2022/11/25 10:22:44;;;;;;;;;;;;;;;13.49;59.88;101397.31;4989781;28;124118;-68
2022/11/25 10:25:17;;;;;;;;;;;;;;;13.54;59.92;101397.94;4991268;28;125025;-68
2022/11/25 10:27:47;;;;;;;;;;;;;;;13.59;59.80;101387.94;4994708;28;115520;-68
2022/11/25 10:30:43;;;;;;;;;;;;;;;13.63;59.88;101400.16;4996451;28;116206;-68
2022/11/25 10:33:28;;;;;;;;;;;;;;;13.70;59.93;101396.25;4985766;28;124166;-68
2022/11/25 10:36:01;;;;;;;;;;;;;;;13.76;59.94;101406.59;4993660;28;124523;-68
2022/11/25 10:38:40;;;;;;;;;;;;;;;13.82;59.92;101406.31;4990171;28;114504;-68
2022/11/25 10:41:11;;;;;;;;;;;;;;;13.88;59.84;101412.25;4992174;28;113704;-68
2022/11/25 10:43:40;;;;;;;;;;;;;;;13.93;59.89;101418.22;4990672;28;124867;-68
2022/11/25 10:46:20;;;;;;;;;;;;;;;13.97;59.81;101419.78;4978605;28;124552;-68
2022/11/25 10:48:51;;;;;;;;;;;;;;;14.02;59.89;101423.09;4994427;28;114180;-68
2022/11/25 10:51:35;;;;;;;;;;;;;;;14.07;59.86;101421.06;4989863;28;116116;-68
2022/11/25 10:54:19;;;;;;;;;;;;;;;14.13;59.79;101427.88;4995969;28;125087;-68
2022/11/25 10:56:58;;;;;;;;;;;;;;;14.18;59.66;101429.38;4989140;28;123644;-68
2022/11/25 10:59:25;;;;;;;;;;;;;;;14.21;59.64;101429.19;4993100;28;114552;-68
2022/11/25 11:01:52;;;;;;;;;;;;;;;14.27;59.72;101437.81;4994191;28;114469;-68
2022/11/25 11:04:19;;;;;;;;;;;;;;;14.31;59.82;101434.06;4971227;28;123372;-68
2022/11/25 11:06:48;;;;;;;;;;;;;;;14.36;59.65;101432.03;4992516;28;124726;-68
2022/11/25 11:09:30;;;;;;;;;;;;;;;14.41;59.55;101435.31;4988253;28;115490;-68
2022/11/25 11:12:04;;;;;;;;;;;;;;;14.46;59.67;101438.59;4991557;28;114673;-68
2022/11/25 11:14:33;;;;;;;;;;;;;;;14.51;59.65;101447.22;4995270;28;123361;-68
2022/11/25 11:17:00;;;;;;;;;;;;;;;14.56;59.75;101442.50;4994479;28;124795;-68
2022/11/25 11:19:28;;;;;;;;;;;;;;;14.63;59.64;101444.88;4987443;28;115431;-68
2022/11/25 11:21:56;;;;;;;;;;;;;;;14.67;59.71;101454.44;5001226;28;115416;-68
2022/11/25 11:24:36;;;;;;;;;;;;;;;14.73;59.69;101451.44;5006496;28;123818;-68
2022/11/25 11:27:23;;;;;;;;;;;;;;;14.79;59.57;101456.47;4989514;28;124745;-68
2022/11/25 11:30:07;;;;;;;;;;;;;;;14.84;59.65;101465.06;4989336;28;114293;-68
2022/11/25 11:32:33;;;;;;;;;;;;;;;14.88;59.52;101466.66;5002025;28;114366;-68
2022/11/25 11:35:13;;;;;;;;;;;;;;;14.94;59.60;101466.31;5010680;28;124236;-68
2022/11/25 11:37:42;;;;;;;;;;;;;;;15.00;59.45;101470.47;5004016;28;124031;-68
2022/11/25 11:40:24;;;;;;;;;;;;;;;15.05;59.55;101470.22;4996590;28;113292;-68
2022/11/25 11:42:59;;;;;;;;;;;;;;;15.10;59.46;101470.81;5007915;28;113927;-68
2022/11/25 11:45:36;;;;;;;;;;;;;;;15.15;59.47;101474.13;4992467;28;124188;-68
2022/11/25 11:48:22;;;;;;;;;;;;;;;15.19;59.58;101486.34;5000987;28;125376;-68
2022/11/25 11:50:51;;;;;;;;;;;;;;;15.22;59.38;101491.53;4991055;28;114499;-68
2022/11/25 11:53:22;;;;;;;;;;;;;;;15.25;59.43;101491.34;5005679;28;113829;-68
2022/11/25 11:55:58;;;;;;;;;;;;;;;15.28;59.32;101496.53;5004933;28;124145;-68
2022/11/25 11:58:51;;;;;;;;;;;;;;;15.34;59.54;101496.19;5004326;28;124428;-68
2022/11/25 12:01:21;;;;;;;;;;;;;;;15.40;59.28;101504.81;4998663;28;114368;-68
2022/11/25 12:04:11;;;;;;;;;;;;;;;15.44;59.26;101501.00;5010335;28;113896;-68
2022/11/25 12:06:39;;;;;;;;;;;;;;;15.51;59.28;101507.75;4992000;28;124478;-68
2022/11/25 12:09:12;;;;;;;;;;;;;;;15.54;59.13;101508.44;4985892;28;123975;-68
2022/11/25 12:11:43;;;;;;;;;;;;;;;15.58;59.25;101511.81;4988083;28;114209;-68
2022/11/25 12:14:20;;;;;;;;;;;;;;;15.61;59.31;101516.97;4984728;28;113506;-67
2022/11/25 12:16:55;;;;;;;;;;;;;;;15.66;59.28;101520.25;4996991;28;123505;-68
2022/11/25 12:19:32;;;;;;;;;;;;;;;15.72;59.14;101519.03;4993560;28;124295;-68
2022/11/25 12:22:05;;;;;;;;;;;;;;;15.77;58.95;101525.88;4998525;28;114416;-68
2022/11/25 12:24:50;;;;;;;;;;;;;;;15.81;59.15;101526.56;4991151;28;114059;-68
2022/11/25 12:27:16;;;;;;;;;;;;;;;15.86;59.11;101534.31;5001930;28;125279;-68
2022/11/25 12:29:56;;;;;;;;;;;;;;;15.90;58.93;101530.56;5007307;28;123941;-68
2022/11/25 12:32:41;;;;;;;;;;;;;;;15.94;58.87;101526.75;5003640;28;115320;-68
2022/11/25 12:35:08;;;;;;;;;;;;;;;15.93;58.88;101535.69;5005207;28;114513;-67
2022/11/25 12:37:43;;;;;;;;;;;;;;;15.94;58.77;101534.75;5001688;28;125065;-68
2022/11/25 12:40:10;;;;;;;;;;;;;;;15.97;59.05;101537.25;4983035;28;124082;-68
2022/11/25 12:42:39;;;;;;;;;;;;;;;16.01;58.77;101538.81;4987783;28;113421;-68
2022/11/25 12:45:10;;;;;;;;;;;;;;;16.02;58.70;101545.88;4995209;28;113830;-68
2022/11/25 12:47:37;;;;;;;;;;;;;;;16.02;58.65;101553.88;5003529;28;123860;-68
2022/11/25 12:50:04;;;;;;;;;;;;;;;16.04;58.62;101554.66;4992834;28;124224;-68